Time;durP1;ratioP1;P1;durP2;ratioP2;P2;SDS_P1;SDS_P2;PMS_P1;PMS_P2;Temp;Humidity;BMP_temperature;BMP_pressure;BME280_temperature;BME280_humidity;BME280_pressure;Samples;Min_cycle;Max_cycle;Signal;HPM_P1;HPM_P2
2022/11/16 00:02:00;;;;;;;56.63;31.27;;;;;;;5.65;94.40;100229.78;7397735;19;20014;-69
2022/11/16 00:04:29;;;;;;;60.85;32.42;;;;;;;5.64;94.57;100225.47;7396660;19;20015;-68
2022/11/16 00:06:57;;;;;;;62.80;33.60;;;;;;;5.65;94.18;100233.25;7396067;19;20031;-67
2022/11/16 00:09:27;;;;;;;63.25;31.45;;;;;;;5.66;94.21;100235.00;7396070;19;20019;-69
2022/11/16 00:11:58;;;;;;;57.78;31.33;;;;;;;5.67;94.39;100234.13;7397804;19;20022;-69
2022/11/16 00:14:28;;;;;;;59.13;32.67;;;;;;;5.68;94.30;100238.41;7396367;19;20015;-69
2022/11/16 00:17:00;;;;;;;64.53;33.03;;;;;;;5.70;94.31;100238.44;7397240;19;20014;-69
2022/11/16 00:19:29;;;;;;;64.32;33.03;;;;;;;5.71;94.29;100235.81;7398034;19;20031;-69
2022/11/16 00:21:57;;;;;;;56.72;30.90;;;;;;;5.73;94.53;100237.53;7397516;19;20047;-69
2022/11/16 00:24:26;;;;;;;62.92;33.15;;;;;;;5.74;94.54;100232.31;7395909;19;20043;-69
2022/11/16 00:26:55;;;;;;;63.50;33.30;;;;;;;5.75;94.32;100238.38;7395014;19;20425;-70
2022/11/16 00:29:26;;;;;;;63.70;33.78;;;;;;;5.76;94.30;100232.28;7396851;19;20030;-69
2022/11/16 00:31:55;;;;;;;61.45;32.42;;;;;;;5.76;94.38;100229.69;7395224;19;20016;-69
2022/11/16 00:34:26;;;;;;;58.15;32.20;;;;;;;5.76;94.48;100229.69;7395379;19;20490;-68
2022/11/16 00:36:55;;;;;;;61.15;33.28;;;;;;;5.78;94.20;100235.75;7397325;19;20018;-69
2022/11/16 00:39:23;;;;;;;61.53;33.47;;;;;;;5.78;94.23;100234.00;7396571;19;20018;-69
2022/11/16 00:41:52;;;;;;;61.15;34.05;;;;;;;5.80;94.33;100231.38;7396261;19;20022;-69
2022/11/16 00:44:20;;;;;;;58.53;31.30;;;;;;;5.80;94.40;100227.03;7395101;19;20477;-69
2022/11/16 00:46:49;;;;;;;65.55;34.20;;;;;;;5.82;94.34;100233.06;7394763;19;20359;-69
2022/11/16 00:49:17;;;;;;;61.22;33.15;;;;;;;5.82;94.41;100232.22;7394484;19;20031;-69
2022/11/16 00:51:48;;;;;;;60.97;33.72;;;;;;;5.83;94.33;100239.16;7396090;19;20010;-69
2022/11/16 00:54:17;;;;;;;63.33;35.40;;;;;;;5.84;94.44;100238.28;7394915;19;20481;-68
2022/11/16 00:56:45;;;;;;;59.58;32.00;;;;;;;5.84;94.24;100225.28;7396313;19;20035;-69
2022/11/16 00:59:14;;;;;;;63.00;33.60;;;;;;;5.84;94.35;100231.31;7396222;19;20082;-69
2022/11/16 01:01:42;;;;;;;58.03;31.73;;;;;;;5.85;94.22;100221.75;7395917;19;20485;-69
2022/11/16 01:04:11;;;;;;;65.95;34.28;;;;;;;5.84;94.22;100223.53;7394005;19;20384;-70
2022/11/16 01:06:39;;;;;;;66.65;34.67;;;;;;;5.83;94.28;100220.94;7394330;19;20015;-69
2022/11/16 01:09:10;;;;;;;64.65;33.50;;;;;;;5.83;94.14;100218.34;7395540;19;20032;-70
2022/11/16 01:14:20;;;;;;;63.58;33.53;;;;;;;5.79;94.32;100214.91;7394715;19;20026;-70
2022/11/16 01:16:51;;;;;;;61.47;32.90;;;;;;;5.75;94.39;100200.19;7395477;19;20108;-70
2022/11/16 01:19:19;;;;;;;66.03;32.10;;;;;;;5.75;94.36;100196.72;7396210;19;20032;-70
2022/11/16 01:21:48;;;;;;;57.05;31.80;;;;;;;5.73;94.09;100198.50;7395336;19;20031;-70
2022/11/16 01:24:26;;;;;;;54.85;31.30;;;;;;;5.69;94.05;100195.91;7394302;19;20018;-70
2022/11/16 01:26:55;;;;;;;51.15;30.70;;;;;;;5.69;94.04;100192.44;7393705;19;20074;-70
2022/11/16 01:29:24;;;;;;;54.25;32.00;;;;;;;5.67;94.05;100194.19;7395513;19;20022;-70
2022/11/16 01:31:53;;;;;;;60.20;30.98;;;;;;;5.65;94.18;100195.94;7393671;19;20379;-68
2022/11/16 01:34:22;;;;;;;55.83;31.92;;;;;;;5.63;93.83;100198.56;7393544;19;20478;-68
2022/11/16 01:36:50;;;;;;;55.03;31.23;;;;;;;5.61;94.18;100196.84;7395529;19;20035;-69
2022/11/16 01:39:19;;;;;;;59.20;33.05;;;;;;;5.62;93.87;100193.38;7395064;19;20027;-70
2022/11/16 01:41:50;;;;;;;62.88;34.00;;;;;;;5.61;93.81;100187.31;7394976;19;20019;-69
2022/11/16 01:44:49;;;;;;;59.90;33.42;;;;;;;5.62;94.07;100186.44;7393927;19;20035;-69
2022/11/16 01:47:19;;;;;;;60.72;32.58;;;;;;;5.62;93.78;100181.22;7393141;19;20027;-68
2022/11/16 01:49:50;;;;;;;62.58;33.38;;;;;;;5.63;93.89;100176.91;7394827;19;20375;-69
2022/11/16 01:52:21;;;;;;;61.42;32.05;;;;;;;5.63;93.85;100169.94;7396493;19;20032;-69
2022/11/16 01:54:52;;;;;;;62.03;32.72;;;;;;;5.63;93.92;100171.69;7399819;19;20032;-69
2022/11/16 01:57:28;;;;;;;68.82;33.13;;;;;;;5.61;94.17;100176.03;7402736;19;20018;-69
2022/11/16 02:00:00;;;;;;;59.95;32.42;;;;;;;5.60;93.91;100171.72;7402698;19;20035;-70
2022/11/16 02:02:29;;;;;;;63.00;33.17;;;;;;;5.60;94.12;100171.72;7399715;19;20019;-70
2022/11/16 02:05:00;;;;;;;66.20;33.47;;;;;;;5.59;93.85;100170.00;7398975;19;20423;-72
2022/11/16 02:09:52;;;;;;;62.10;33.15;;;;;;;5.59;94.08;100157.00;7400330;19;20019;-71
2022/11/16 02:10:41;;;;;;;66.07;32.55;;;;;;;5.58;94.21;100163.06;7401407;19;20014;-69
2022/11/16 02:13:41;;;;;;;65.57;33.83;;;;;;;5.56;94.36;100170.91;7402272;19;20025;-68
2022/11/16 02:16:20;;;;;;;60.90;32.75;;;;;;;5.53;94.40;100161.38;7402173;19;20022;-68
2022/11/16 02:18:59;;;;;;;56.75;31.65;;;;;;;5.53;94.37;100164.00;7402120;19;20018;-68
2022/11/16 02:21:37;;;;;;;58.15;33.03;;;;;;;5.49;94.39;100164.03;7401986;19;20036;-68
2022/11/16 02:24:30;;;;;;;60.05;31.25;;;;;;;5.47;94.38;100163.16;7399896;19;20019;-67
2022/11/16 02:27:15;;;;;;;64.93;33.33;;;;;;;5.45;94.78;100151.94;7399801;19;20014;-68
2022/11/16 02:29:49;;;;;;;59.22;32.17;;;;;;;5.44;94.58;100152.81;7401667;19;20022;-68
2022/11/16 02:32:30;;;;;;;63.65;34.88;;;;;;;5.43;94.62;100156.28;7398068;19;20024;-68
2022/11/16 02:35:04;;;;;;;68.13;34.75;;;;;;;5.39;94.63;100156.28;7398556;19;20035;-68
2022/11/16 02:37:37;;;;;;;64.43;35.13;;;;;;;5.39;94.38;100152.84;7400753;19;20485;-68
2022/11/16 02:40:09;;;;;;;61.75;33.72;;;;;;;5.39;94.39;100145.03;7397976;19;20031;-68
2022/11/16 02:42:43;;;;;;;75.63;37.45;;;;;;;5.39;94.83;100143.28;7400900;19;20014;-68
2022/11/16 02:45:19;;;;;;;71.07;35.30;;;;;;;5.38;94.49;100138.09;7397801;19;20010;-66
2022/11/16 02:47:52;;;;;;;73.13;37.30;;;;;;;5.36;94.46;100145.94;7398364;19;20035;-68
2022/11/16 02:50:23;;;;;;;76.63;36.50;;;;;;;5.35;94.52;100146.81;7398329;19;20018;-68
2022/11/16 02:52:51;;;;;;;78.50;37.53;;;;;;;5.34;94.76;100139.88;7399984;19;20014;-68
2022/11/16 02:55:20;;;;;;;81.88;38.92;;;;;;;5.34;94.93;100139.03;7397895;19;20010;-68
2022/11/16 02:57:53;;;;;;;74.55;39.15;;;;;;;5.33;94.96;100138.16;7400378;19;20018;-68
2022/11/16 03:00:26;;;;;;;73.05;38.28;;;;;;;5.32;95.12;100131.25;7400473;19;20032;-68
2022/11/16 03:03:06;;;;;;;78.40;40.75;;;;;;;5.31;94.97;100131.25;7400163;19;20360;-67
2022/11/16 03:05:37;;;;;;;79.93;40.35;;;;;;;5.31;94.91;100129.50;7400360;19;20023;-68
2022/11/16 03:08:16;;;;;;;72.82;38.50;;;;;;;5.30;95.49;100124.34;7397960;19;20028;-68
2022/11/16 03:13:38;;;;;;;77.75;39.80;;;;;;;5.28;94.90;100120.88;7398825;19;20023;-67
2022/11/16 03:16:15;;;;;;;74.53;38.67;;;;;;;5.28;94.84;100113.94;7400574;19;20034;-68
2022/11/16 03:18:46;;;;;;;77.35;38.88;;;;;;;5.26;95.01;100110.50;7398753;19;20011;-68
2022/11/16 03:21:21;;;;;;;73.72;37.92;;;;;;;5.27;94.80;100117.41;7398234;19;20368;-68
2022/11/16 03:23:50;;;;;;;76.90;38.47;;;;;;;5.27;94.98;100112.22;7398559;19;20027;-68
2022/11/16 03:26:24;;;;;;;69.13;37.55;;;;;;;5.27;95.01;100117.41;7398567;19;20086;-68
2022/11/16 03:29:04;;;;;;;73.90;37.53;;;;;;;5.26;94.85;100114.81;7398963;19;20018;-68
2022/11/16 03:31:42;;;;;;;76.75;37.80;;;;;;;5.24;95.08;100101.81;7398130;19;20023;-69
2022/11/16 03:34:17;;;;;;;77.47;38.55;;;;;;;5.24;94.97;100104.44;7397060;19;20019;-67
2022/11/16 03:36:49;;;;;;;81.90;38.60;;;;;;;5.23;95.20;100097.50;7397015;19;20090;-68
2022/11/16 03:39:24;;;;;;;76.82;37.85;;;;;;;5.21;95.16;100094.91;7398470;19;20015;-68
2022/11/16 03:41:52;;;;;;;;;;;;;;;5.19;95.40;100080.22;7397311;19;20031;-68
2022/11/16 03:44:22;;;;;;;74.38;38.10;;;;;;;5.18;95.19;100081.09;7397245;19;19927;-67
2022/11/16 03:46:53;;;;;;;80.50;37.05;;;;;;;5.16;95.12;100083.72;7396411;19;20015;-68
2022/11/16 03:49:23;;;;;;;78.57;37.30;;;;;;;5.16;95.15;100083.72;7399135;19;20019;-68
2022/11/16 03:51:53;;;;;;;74.85;38.78;;;;;;;5.15;94.92;100084.56;7398215;19;20014;-68
2022/11/16 03:54:21;;;;;;;72.15;36.20;;;;;;;5.15;95.41;100081.13;7397002;19;20076;-68
2022/11/16 03:56:50;;;;;;;78.20;37.05;;;;;;;5.14;95.16;100092.41;7396272;19;20018;-68
2022/11/16 03:59:18;;;;;;;77.95;37.38;;;;;;;5.14;95.07;100090.66;7397808;19;20529;-68
2022/11/16 04:01:47;;;;;;;83.38;37.72;;;;;;;5.16;95.19;100093.25;7397823;19;20491;-68
2022/11/16 04:25:59;;;;;;;87.22;39.25;;;;;;;5.14;95.22;100084.59;7397757;19;20015;-67
2022/11/16 04:28:28;;;;;;;89.93;39.15;;;;;;;5.12;95.32;100086.34;7395314;19;20031;-67
2022/11/16 04:39:05;;;;;;;99.47;42.90;;;;;;;5.06;95.53;100082.94;7396867;19;20014;-66
2022/11/16 04:44:15;;;;;;;94.15;40.97;;;;;;;5.04;95.32;100084.69;7395297;19;20010;-68
2022/11/16 04:49:24;;;;;;;89.13;39.50;;;;;;;5.03;96.29;100101.16;7396918;19;20003;-66
2022/11/16 04:51:56;;;;;;;91.07;40.33;;;;;;;5.02;96.31;100096.84;7394229;19;20518;-67
2022/11/16 04:54:30;;;;;;;97.95;41.53;;;;;;;5.01;96.29;100097.72;7394581;19;20104;-67
2022/11/16 04:56:59;;;;;;;100.88;42.67;;;;;;;5.02;96.02;100090.78;7394486;19;20022;-67
2022/11/16 04:59:27;;;;;;;101.03;43.45;;;;;;;5.02;95.77;100085.59;7395927;19;20022;-68
2022/11/16 05:02:11;;;;;;;99.15;42.83;;;;;;;5.03;96.17;100084.69;7395258;19;20027;-69
2022/11/16 05:04:41;;;;;;;103.27;42.90;;;;;;;5.03;96.44;100084.69;7393951;19;20018;-68
2022/11/16 05:07:14;;;;;;;108.45;43.53;;;;;;;5.02;96.34;100089.03;7393683;19;20084;-68
2022/11/16 05:09:45;;;;;;;94.00;39.53;;;;;;;5.02;96.46;100096.00;7396163;19;20091;-68
2022/11/16 05:12:15;;;;;;;107.10;41.03;;;;;;;5.01;96.34;100092.50;7395988;19;20082;-67
2022/11/16 05:14:44;;;;;;;106.68;43.10;;;;;;;5.03;95.97;100095.09;7394191;19;20019;-68
2022/11/16 05:17:13;;;;;;;98.57;42.28;;;;;;;5.03;96.11;100089.88;7395587;19;20033;-66
2022/11/16 05:22:26;;;;;;;105.40;43.40;;;;;;;5.03;96.19;100093.38;7395422;19;20033;-67
2022/11/16 05:24:54;;;;;;;100.70;42.05;;;;;;;5.04;95.87;100097.69;7393414;19;20462;-67
2022/11/16 05:27:24;;;;;;;102.43;41.80;;;;;;;5.05;96.16;100108.94;7391970;19;20074;-67
2022/11/16 05:29:53;;;;;;;107.32;43.50;;;;;;;5.04;96.45;100097.69;7394934;19;20018;-66
2022/11/16 05:32:23;;;;;;;102.47;41.30;;;;;;;5.03;96.33;100103.78;7392253;19;20428;-66
2022/11/16 05:34:52;;;;;;;90.97;41.08;;;;;;;5.03;96.37;100111.56;7392868;19;20086;-68
2022/11/16 05:37:25;;;;;;;104.00;41.03;;;;;;;5.03;96.34;100108.97;7394510;19;20126;-67
2022/11/16 05:39:56;;;;;;;100.40;40.42;;;;;;;5.00;96.16;100108.97;7394021;19;20023;-67
2022/11/16 05:42:25;;;;;;;98.78;41.20;;;;;;;5.03;96.34;100114.16;7393741;19;20022;-67
2022/11/16 05:44:53;;;;;;;99.45;42.45;;;;;;;5.03;96.67;100111.56;7392635;19;20039;-67
2022/11/16 05:47:22;;;;;;;106.28;42.75;;;;;;;5.02;96.33;100112.44;7392932;19;20018;-68
2022/11/16 05:49:50;;;;;;;105.43;41.30;;;;;;;5.02;96.35;100115.03;7394417;19;20078;-67
2022/11/16 05:52:18;;;;;;;106.07;42.40;;;;;;;5.02;96.25;100111.59;7392613;19;20015;-68
2022/11/16 05:54:47;;;;;;;104.03;39.90;;;;;;;5.04;96.35;100115.91;7392775;19;20023;-70
2022/11/16 05:57:18;;;;;;;101.00;41.15;;;;;;;5.06;96.24;100118.47;7394098;19;20014;-68
2022/11/16 05:59:46;;;;;;;110.82;43.15;;;;;;;5.08;96.36;100118.47;7392390;19;20019;-69
2022/11/16 06:02:15;;;;;;;108.53;43.58;;;;;;;5.06;96.46;100123.69;7393889;19;20035;-67
2022/11/16 06:04:43;;;;;;;105.22;41.13;;;;;;;5.06;96.36;100123.69;7392025;19;20015;-67
2022/11/16 06:07:12;;;;;;;107.63;39.72;;;;;;;5.08;96.45;100126.25;7390865;19;20022;-67
2022/11/16 06:09:42;;;;;;;112.25;43.58;;;;;;;5.08;96.48;100126.25;7391881;19;20487;-67
2022/11/16 06:12:11;;;;;;;109.35;41.28;;;;;;;5.09;96.50;100125.38;7394657;19;20377;-67
2022/11/16 06:14:42;;;;;;;107.53;41.58;;;;;;;5.10;96.53;100134.91;7392329;19;20019;-68
2022/11/16 06:17:13;;;;;;;111.00;44.08;;;;;;;5.11;96.36;100137.50;7390810;19;20538;-68
2022/11/16 06:19:42;;;;;;;106.90;42.15;;;;;;;5.10;96.57;100127.13;7390818;19;20037;-68
2022/11/16 06:22:10;;;;;;;106.40;41.95;;;;;;;5.11;96.35;100115.84;7392102;19;20027;-68
2022/11/16 06:24:38;;;;;;;112.35;44.17;;;;;;;5.12;96.46;100128.81;7391317;19;20018;-68
2022/11/16 06:27:14;;;;;;;112.20;41.75;;;;;;;5.12;96.77;100121.03;7392305;19;20517;-69
2022/11/16 06:29:45;;;;;;;110.72;40.70;;;;;;;5.12;96.50;100115.81;7393532;19;20021;-69
2022/11/16 06:32:14;;;;;;;115.60;43.92;;;;;;;5.13;96.54;100114.97;7391550;19;20014;-68
2022/11/16 06:34:42;;;;;;;108.88;42.20;;;;;;;5.14;96.38;100116.66;7392437;19;20019;-69
2022/11/16 06:37:11;;;;;;;109.07;41.95;;;;;;;5.14;96.35;100114.06;7392165;19;20376;-69
2022/11/16 06:39:40;;;;;;;109.13;42.28;;;;;;;5.16;96.56;100117.50;7396771;19;20524;-69
2022/11/16 06:42:08;;;;;;;108.13;42.63;;;;;;;5.16;96.19;100120.13;7399158;19;20030;-68
2022/11/16 06:44:37;;;;;;;106.22;41.72;;;;;;;5.17;96.56;100124.44;7397923;19;20198;-69
2022/11/16 06:47:08;;;;;;;112.25;43.28;;;;;;;5.18;96.31;100120.09;7397531;19;20011;-68
2022/11/16 06:49:36;;;;;;;115.28;43.03;;;;;;;5.20;96.29;100127.00;7400339;19;20031;-68
2022/11/16 06:52:05;;;;;;;107.72;43.20;;;;;;;5.21;96.45;100127.88;7400190;19;20082;-68
2022/11/16 06:54:33;;;;;;;109.78;44.65;;;;;;;5.21;96.37;100120.94;7397732;19;20432;-68
2022/11/16 06:57:02;;;;;;;113.50;43.20;;;;;;;5.23;96.28;100136.50;7399746;19;20522;-68
2022/11/16 06:59:30;;;;;;;114.80;45.10;;;;;;;5.23;96.47;100128.72;7399987;19;20032;-69
2022/11/16 07:01:59;;;;;;;115.75;45.70;;;;;;;5.24;96.33;100133.03;7399673;19;20014;-68
2022/11/16 07:04:30;;;;;;;108.07;43.65;;;;;;;5.25;96.52;100132.16;7396111;19;20018;-68
2022/11/16 07:06:58;;;;;;;107.63;43.42;;;;;;;5.26;96.63;100126.09;7396701;19;20019;-69
2022/11/16 07:09:27;;;;;;;109.28;43.05;;;;;;;5.25;96.56;100126.97;7399540;19;20018;-69
2022/11/16 07:11:55;;;;;;;105.93;42.10;;;;;;;5.25;96.24;100129.56;7399542;19;20014;-69
2022/11/16 07:14:23;;;;;;;113.07;43.60;;;;;;;5.25;96.36;100132.16;7397282;19;20029;-68
2022/11/16 07:16:52;;;;;;;104.60;43.13;;;;;;;5.26;96.39;100127.81;7396128;19;20010;-68
2022/11/16 07:19:21;;;;;;;100.75;44.22;;;;;;;5.26;96.38;100133.91;7399104;19;20035;-67
2022/11/16 07:21:52;;;;;;;101.38;41.63;;;;;;;5.26;96.42;100130.41;7398364;19;20491;-67
2022/11/16 07:24:20;;;;;;;96.85;42.30;;;;;;;5.26;96.25;100130.41;7396085;19;20517;-67
2022/11/16 07:26:48;;;;;;;94.53;39.20;;;;;;;5.26;96.34;100130.41;7397784;19;20035;-67
2022/11/16 07:29:17;;;;;;;106.25;43.85;;;;;;;5.27;96.38;100137.34;7396509;19;20019;-67
2022/11/16 07:31:45;;;;;;;100.53;42.25;;;;;;;5.27;96.18;100132.16;7398001;19;20070;-67
2022/11/16 07:34:14;;;;;;;97.85;43.05;;;;;;;5.29;96.42;100130.41;7397167;19;20018;-66
2022/11/16 07:36:42;;;;;;;94.80;41.42;;;;;;;5.31;96.14;100139.06;7396029;19;20022;-67
2022/11/16 07:39:13;;;;;;;91.15;40.33;;;;;;;5.29;96.14;100136.47;7395603;19;20035;-68
2022/11/16 07:41:43;;;;;;;97.13;41.53;;;;;;;5.29;96.33;100136.47;7399788;19;20465;-68
2022/11/16 07:44:11;;;;;;;84.75;40.90;;;;;;;5.29;96.00;100135.59;7403715;19;20034;-67
2022/11/16 07:46:40;;;;;;;87.50;39.40;;;;;;;5.29;96.14;100127.81;7404118;19;20363;-68
2022/11/16 07:49:08;;;;;;;89.85;42.00;;;;;;;5.27;96.08;100125.22;7396432;19;20018;-67
2022/11/16 07:51:37;;;;;;;86.28;38.72;;;;;;;5.28;96.05;100126.97;7394325;19;20023;-67
2022/11/16 07:54:06;;;;;;;124.03;60.30;;;;;;;5.29;95.88;100126.06;7395970;19;20022;-67
2022/11/16 07:56:37;;;;;;;91.68;40.95;;;;;;;5.31;95.92;100120.84;7398255;19;20019;-68
2022/11/16 07:59:05;;;;;;;88.90;41.17;;;;;;;5.32;95.89;100115.63;7398465;19;20074;-67
2022/11/16 08:01:34;;;;;;;95.82;41.83;;;;;;;5.33;95.92;100111.28;7397930;19;20039;-69
2022/11/16 08:04:03;;;;;;;87.53;39.72;;;;;;;5.32;95.62;100105.22;7395699;19;20015;-67
2022/11/16 08:06:33;;;;;;;98.82;42.70;;;;;;;5.33;95.77;100100.88;7397406;19;20021;-67
2022/11/16 08:09:01;;;;;;;100.07;42.63;;;;;;;5.33;95.79;100104.34;7395331;19;20019;-67
2022/11/16 08:11:30;;;;;;;97.95;42.55;;;;;;;5.34;95.57;100095.66;7397116;19;20039;-67
2022/11/16 08:14:01;;;;;;;97.45;42.63;;;;;;;5.36;95.80;100090.47;7395360;19;20494;-67
2022/11/16 08:16:32;;;;;;;100.80;42.67;;;;;;;5.36;95.59;100091.31;7394629;19;20074;-67
2022/11/16 08:19:01;;;;;;;101.22;43.45;;;;;;;5.39;95.83;100098.22;7396764;19;20110;-67
2022/11/16 08:21:29;;;;;;;103.25;45.05;;;;;;;5.39;95.84;100093.84;7396458;19;20010;-68
2022/11/16 08:23:58;;;;;;;102.68;43.40;;;;;;;5.41;95.88;100078.25;7394762;19;20022;-67
2022/11/16 08:26:26;;;;;;;99.35;42.05;;;;;;;5.43;95.80;100078.22;7396853;19;20499;-67
2022/11/16 08:28:56;;;;;;;106.63;45.03;;;;;;;5.42;95.78;100074.78;7394583;19;20027;-67
2022/11/16 08:31:28;;;;;;;100.13;43.10;;;;;;;5.43;95.78;100075.63;7396065;19;20010;-68
2022/11/16 08:33:58;;;;;;;99.13;42.72;;;;;;;5.42;95.98;100066.09;7395335;19;20018;-67
2022/11/16 08:36:26;;;;;;;97.85;42.80;;;;;;;5.43;96.03;100067.81;7396889;19;20010;-68
2022/11/16 08:38:55;;;;;;;99.15;42.80;;;;;;;5.46;95.83;100075.59;7395994;19;20010;-68
2022/11/16 08:41:24;;;;;;;103.53;42.45;;;;;;;5.47;95.88;100070.38;7396775;19;20018;-68
2022/11/16 08:43:53;;;;;;;108.03;43.13;;;;;;;5.49;95.89;100063.41;7394212;19;20384;-67
2022/11/16 08:46:21;;;;;;;102.85;40.00;;;;;;;5.51;95.90;100052.97;7396633;19;20115;-67
2022/11/16 08:48:56;;;;;;;106.70;42.47;;;;;;;5.50;96.18;100053.88;7395095;19;20027;-67
2022/11/16 08:51:26;;;;;;;111.25;42.88;;;;;;;5.51;96.00;100055.56;7396811;19;20026;-68
2022/11/16 08:53:57;;;;;;;107.22;43.10;;;;;;;5.50;96.33;100059.06;7395007;19;20478;-67
2022/11/16 08:56:28;;;;;;;105.85;41.72;;;;;;;5.52;96.24;100060.78;7396711;19;20075;-67
2022/11/16 08:58:58;;;;;;;102.90;41.22;;;;;;;5.53;96.20;100067.72;7394069;19;20351;-68
2022/11/16 09:01:28;;;;;;;101.97;40.35;;;;;;;5.54;96.33;100060.75;7394055;19;20022;-67
2022/11/16 09:04:00;;;;;;;103.70;41.40;;;;;;;5.55;96.24;100067.69;7395374;19;20022;-67
2022/11/16 09:06:29;;;;;;;102.85;40.75;;;;;;;5.56;96.26;100066.81;7394903;19;20086;-67
2022/11/16 09:08:58;;;;;;;110.65;42.42;;;;;;;5.55;96.45;100070.28;7394206;19;20019;-67
2022/11/16 09:11:28;;;;;;;115.65;40.40;;;;;;;5.54;96.61;100074.63;7395339;19;20485;-67
2022/11/16 09:13:57;;;;;;;98.47;40.13;;;;;;;5.55;96.38;100078.09;7394006;19;20104;-67
2022/11/16 09:16:26;;;;;;;111.75;42.33;;;;;;;5.55;96.71;100071.13;7395698;19;20031;-67
2022/11/16 09:18:55;;;;;;;116.68;41.47;;;;;;;5.57;96.71;100068.50;7393732;19;20019;-67
2022/11/16 09:21:28;;;;;;;117.88;43.42;;;;;;;5.56;96.97;100066.81;7395522;19;20023;-67
2022/11/16 09:23:57;;;;;;;124.60;44.10;;;;;;;5.59;96.63;100065.91;7394627;19;20030;-67
2022/11/16 09:26:27;;;;;;;124.53;44.90;;;;;;;5.60;96.76;100063.28;7395130;19;20026;-67
2022/11/16 09:28:57;;;;;;;120.25;44.25;;;;;;;5.62;96.90;100060.66;7393979;19;20086;-68
2022/11/16 09:31:26;;;;;;;117.60;42.67;;;;;;;5.60;97.07;100059.81;7395266;19;20014;-68
2022/11/16 09:33:57;;;;;;;119.82;43.97;;;;;;;5.62;96.90;100066.72;7393761;19;20018;-67
2022/11/16 09:36:29;;;;;;;129.48;48.22;;;;;;;5.64;97.05;100056.31;7394438;19;20525;-68
2022/11/16 09:38:58;;;;;;;129.13;44.00;;;;;;;5.64;97.57;100054.56;7393420;19;20073;-67
2022/11/16 09:41:49;;;;;;;121.22;42.58;;;;;;;5.65;97.44;100051.06;7394141;19;20380;-67
2022/11/16 09:44:39;;;;;;;131.00;43.92;;;;;;;5.66;97.81;100050.19;7392731;19;20388;-68
2022/11/16 09:47:15;;;;;;;123.55;42.72;;;;;;;5.66;97.60;100059.72;7394350;19;20482;-67
2022/11/16 09:49:49;;;;;;;143.90;46.40;;;;;;;5.66;97.89;100052.81;7393131;19;20010;-69
2022/11/16 09:52:33;;;;;;;131.63;45.20;;;;;;;5.69;98.24;100059.72;7392736;19;20083;-67
2022/11/16 09:55:03;;;;;;;;;;;;;;;5.70;98.15;100057.09;7393108;19;20098;-66
2022/11/16 09:57:37;;;;;;;138.82;43.80;;;;;;;5.70;97.49;100048.44;7393965;19;19923;-67
2022/11/16 10:00:16;;;;;;;136.18;45.70;;;;;;;5.74;97.76;100059.63;7393900;19;20415;-68
2022/11/16 10:02:49;;;;;;;136.00;43.75;;;;;;;5.75;97.17;100057.03;7393552;19;20019;-68
2022/11/16 10:05:23;;;;;;;146.25;48.55;;;;;;;5.78;97.32;100056.97;7393672;19;20019;-68
2022/11/16 10:08:00;;;;;;;149.98;48.78;;;;;;;5.80;97.68;100060.44;7393118;19;20489;-68
2022/11/16 10:10:36;;;;;;;146.95;49.92;;;;;;;5.78;97.65;100051.78;7392463;19;20026;-68
2022/11/16 10:13:11;;;;;;;150.00;47.17;;;;;;;5.83;97.91;100059.53;7393622;19;20386;-68
2022/11/16 10:15:49;;;;;;;154.63;48.20;;;;;;;5.84;98.17;100051.69;7400739;19;20502;-69
2022/11/16 10:18:48;;;;;;;156.43;50.05;;;;;;;5.89;98.32;100056.84;7401008;19;20542;-68
2022/11/16 10:21:33;;;;;;;153.90;47.58;;;;;;;5.92;98.93;100051.59;7401662;19;20010;-69
2022/11/16 10:24:25;;;;;;;158.00;50.47;;;;;;;5.94;98.91;100048.97;7398458;19;20028;-67
2022/11/16 10:27:06;;;;;;;144.32;49.45;;;;;;;5.93;98.85;100058.53;7400560;19;20027;-68
2022/11/16 10:29:45;;;;;;;139.48;46.40;;;;;;;5.92;98.59;100048.13;7397555;19;20379;-68
2022/11/16 10:32:27;;;;;;;135.82;48.13;;;;;;;5.91;98.41;100043.81;7398766;19;20033;-68
2022/11/16 10:35:04;;;;;;;128.10;45.85;;;;;;;5.88;98.69;100044.72;7397487;19;20022;-68
2022/11/16 10:37:35;;;;;;;130.13;46.20;;;;;;;5.86;98.26;100038.66;7399341;19;20332;-67
2022/11/16 10:40:19;;;;;;;122.00;43.47;;;;;;;5.87;98.28;100042.97;7399631;19;20018;-68
2022/11/16 10:42:54;;;;;;;116.45;44.30;;;;;;;5.85;98.33;100044.72;7399434;19;20432;-69
2022/11/16 10:45:28;;;;;;;116.00;43.60;;;;;;;5.84;98.12;100036.06;7400208;19;20130;-68
2022/11/16 10:47:59;;;;;;;;;;;;;;;5.84;98.29;100040.44;7399972;19;20509;-69
2022/11/16 10:50:34;;;;;;;111.00;41.20;;;;;;;5.84;98.35;100040.44;7399268;19;20342;-71
2022/11/16 10:53:03;;;;;;;108.80;41.13;;;;;;;5.83;98.03;100042.16;7399535;19;20035;-70
2022/11/16 10:55:34;;;;;;;103.28;40.88;;;;;;;5.82;98.11;100026.56;7399802;19;20018;-67
2022/11/16 10:58:04;;;;;;;107.10;41.00;;;;;;;5.82;98.17;100031.78;7399899;19;20018;-67
2022/11/16 11:00:38;;;;;;;104.82;39.17;;;;;;;5.82;98.12;100029.16;7397002;19;20026;-67
2022/11/16 11:03:09;;;;;;;106.10;39.50;;;;;;;5.82;98.16;100029.16;7399643;19;20022;-66
2022/11/16 11:05:39;;;;;;;109.40;40.60;;;;;;;5.81;97.93;100024.84;7399686;19;20037;-66
2022/11/16 11:08:11;;;;;;;104.70;40.10;;;;;;;5.82;97.84;100021.34;7396805;19;20022;-67
2022/11/16 11:10:43;;;;;;;113.22;41.78;;;;;;;5.84;98.11;100017.84;7399698;19;20019;-66
2022/11/16 11:13:27;;;;;;;106.68;39.95;;;;;;;5.86;98.07;100017.81;7398363;19;20078;-66
2022/11/16 11:16:16;;;;;;;109.57;41.13;;;;;;;5.87;97.74;100023.00;7396757;19;20019;-65
2022/11/16 11:18:45;;;;;;;107.88;39.22;;;;;;;5.87;97.92;100015.19;7398048;19;20018;-67
2022/11/16 11:21:16;;;;;;;113.78;41.00;;;;;;;5.88;97.77;100016.91;7398903;19;20085;-67
2022/11/16 11:23:49;;;;;;;110.85;39.90;;;;;;;5.90;98.16;100010.84;7397317;19;20074;-67
2022/11/16 11:26:38;;;;;;;110.80;39.50;;;;;;;5.88;97.86;100011.72;7397412;19;20014;-66
2022/11/16 11:29:21;;;;;;;104.65;37.60;;;;;;;5.90;98.15;100018.66;7397980;19;20022;-64
2022/11/16 11:31:53;;;;;;;108.78;45.28;;;;;;;5.90;97.88;100016.88;7397224;19;20063;-66
2022/11/16 11:34:25;;;;;;;115.97;40.00;;;;;;;5.91;97.75;100018.63;7398570;19;20023;-66
2022/11/16 11:36:57;;;;;;;108.30;38.17;;;;;;;5.94;97.77;100012.50;7396783;19;20034;-66
2022/11/16 11:39:32;;;;;;;98.43;35.95;;;;;;;5.94;98.14;100007.28;7396278;19;20022;-65
2022/11/16 11:42:23;;;;;;;92.72;35.00;;;;;;;5.94;97.85;100009.91;7398432;19;20015;-71
2022/11/16 11:44:57;;;;;;;89.70;34.40;;;;;;;5.93;98.02;100010.81;7396489;19;20021;-66
2022/11/16 11:47:48;;;;;;;89.05;34.75;;;;;;;5.89;97.80;100007.38;7398607;19;20018;-66
2022/11/16 11:50:21;;;;;;;96.43;34.83;;;;;;;5.94;97.59;100020.31;7395847;19;20481;-67
2022/11/16 11:53:01;;;;;;;87.45;30.33;;;;;;;5.94;97.63;100017.72;7395366;19;20082;-67
2022/11/16 11:55:31;;;;;;;86.13;31.45;;;;;;;5.94;97.75;100018.59;7395022;19;20498;-67
2022/11/16 11:58:05;;;;;;;89.75;32.45;;;;;;;5.94;97.44;100013.38;7397549;19;20022;-66
2022/11/16 12:00:42;;;;;;;101.05;37.67;;;;;;;5.95;97.62;100009.91;7395649;19;20018;-66
2022/11/16 12:03:41;;;;;;;89.13;32.60;;;;;;;5.96;97.75;100009.00;7395104;19;20081;-67
2022/11/16 12:06:16;;;;;;;78.82;30.38;;;;;;;5.91;97.66;100010.81;7397054;19;20019;-67
2022/11/16 12:09:06;;;;;;;79.40;29.95;;;;;;;5.95;97.63;100015.09;7396226;19;20387;-67
2022/11/16 12:11:46;;;;;;;77.00;29.42;;;;;;;5.96;97.78;100011.59;7397493;19;20019;-69
2022/11/16 12:14:35;;;;;;;80.20;29.33;;;;;;;5.95;97.71;100017.72;7395669;19;20014;-69
2022/11/16 12:17:13;;;;;;;89.57;32.78;;;;;;;5.95;97.69;100014.22;7396795;19;20023;-68
2022/11/16 12:19:58;;;;;;;82.75;31.05;;;;;;;5.95;97.59;100012.50;7395774;19;20485;-68
2022/11/16 12:22:54;;;;;;;81.03;30.85;;;;;;;5.96;97.90;100008.16;7393930;19;20014;-68